| time (UTC) | temp F | wind direction | speed MPH | gust MPH | rain 1hr in | rain 24hr in | rain mn in | humidity % | barometer mb |
| 20260904215820 | 90 | 359 | 0.0 | 0.0 | 0.00 | 0.00 | 0.00 | 73 | 1007.0 |
| 20260904214746 | 90 | 228 | 0.0 | 0.0 | 0.00 | 0.00 | 0.00 | 72 | 1007.0 |
| 20260904213721 | 91 | 213 | 0.0 | 0.0 | 0.00 | 0.00 | 0.00 | 72 | 1006.9 |
| 20260904212720 | 91 | 132 | 0.0 | 0.0 | 0.00 | 0.00 | 0.00 | 72 | 1006.9 |
| 20260904211704 | 92 | 132 | 0.0 | 1.0 | 0.00 | 0.00 | 0.00 | 69 | 1006.9 |
| 20260904210710 | 93 | 356 | 0.0 | 3.0 | 0.00 | 0.00 | 0.00 | 71 | 1007.0 |
| 20260904205714 | 94 | 82 | 0.0 | 2.0 | 0.00 | 0.00 | 0.00 | 69 | 1006.5 |
| 20260904204729 | 92 | 5 | 0.0 | 2.0 | 0.00 | 0.00 | 0.00 | 76 | 1006.5 |
| 20260904203712 | 92 | 356 | 0.0 | 1.0 | 0.00 | 0.00 | 0.00 | 73 | 1006.4 |
| 20260904202720 | 95 | 283 | 0.0 | 4.0 | 0.00 | 0.00 | 0.00 | 64 | 1006.9 |
| 20260904201740 | 98 | 52 | 0.0 | 1.0 | 0.00 | 0.00 | 0.00 | 54 | 1006.9 |
| 20260904200715 | 99 | 122 | 1.0 | 6.0 | 0.00 | 0.00 | 0.00 | 51 | 1007.3 |
| 20260904195703 | 100 | 62 | 1.0 | 6.0 | 0.00 | 0.00 | 0.00 | 50 | 1007.4 |
| 20260904192431 | 100 | 167 | 2.0 | 8.0 | 0.00 | 0.00 | 0.00 | 50 | 1007.8 |
| 20260904191359 | 100 | 89 | 1.0 | 8.0 | 0.00 | 0.00 | 0.00 | 50 | 1008.2 |
| 20260904190357 | 100 | 76 | 1.0 | 8.0 | 0.00 | 0.00 | 0.00 | 51 | 1008.2 |
| 20260904185346 | 99 | 9 | 1.0 | 6.0 | 0.00 | 0.00 | 0.00 | 53 | 1008.4 |
| 20260904184323 | 99 | 270 | 0.0 | 4.0 | 0.00 | 0.00 | 0.00 | 51 | 1008.9 |
| 20260904183341 | 99 | 154 | 1.0 | 5.0 | 0.00 | 0.00 | 0.00 | 49 | 1008.9 |
| 20260904182339 | 99 | 93 | 1.0 | 5.0 | 0.00 | 0.00 | 0.00 | 53 | 1008.9 |
| 20260904181331 | 99 | 256 | 1.0 | 8.0 | 0.00 | 0.00 | 0.00 | 54 | 1009.2 |
| 20260904175200 | 98 | 205 | 1.0 | 4.0 | 0.00 | 0.00 | 0.00 | 56 | 1009.4 |
| 20260904174144 | 98 | 272 | 1.0 | 5.0 | 0.00 | 0.00 | 0.00 | 56 | 1009.5 |
| 20260904172018 | 96 | 117 | 1.0 | 5.0 | 0.00 | 0.00 | 0.00 | 59 | 1009.4 |
| 20260904171008 | 97 | 214 | 1.0 | 5.0 | 0.00 | 0.00 | 0.00 | 58 | 1009.5 |
| 20260904170002 | 96 | 232 | 1.0 | 5.0 | 0.00 | 0.00 | 0.00 | 59 | 1009.5 |
| 20260904164931 | 96 | 108 | 1.0 | 5.0 | 0.00 | 0.00 | 0.00 | 61 | 1009.7 |
| 20260904163932 | 95 | 97 | 1.0 | 4.0 | 0.00 | 0.00 | 0.00 | 60 | 1010.0 |
| 20260904162908 | 95 | 3 | 1.0 | 5.0 | 0.00 | 0.00 | 0.00 | 63 | 1010.2 |
| 20260904161915 | 94 | 345 | 1.0 | 5.0 | 0.00 | 0.00 | 0.00 | 63 | 1010.2 |
| 20260904155757 | 93 | 214 | 1.0 | 5.0 | 0.00 | 0.00 | 0.00 | 65 | 1010.5 |
| 20260904154750 | 93 | 177 | 1.0 | 5.0 | 0.00 | 0.00 | 0.00 | 66 | 1010.5 |
| 20260904153755 | 92 | 170 | 1.0 | 6.0 | 0.00 | 0.00 | 0.00 | 66 | 1010.5 |
| 20260904152817 | 91 | 25 | 1.0 | 6.0 | 0.00 | 0.00 | 0.00 | 69 | 1010.6 |
| 20260904151817 | 91 | 138 | 1.0 | 6.0 | 0.00 | 0.00 | 0.00 | 70 | 1010.6 |
| 20260904144549 | 89 | 78 | 1.0 | 6.0 | 0.00 | 0.00 | 0.00 | 72 | 1010.6 |
| 20260904143523 | 88 | 210 | 1.0 | 6.0 | 0.00 | 0.00 | 0.00 | 72 | 1010.6 |
| 20260904142453 | 88 | 159 | 1.0 | 4.0 | 0.00 | 0.00 | 0.00 | 74 | 1010.6 |
| 20260904141436 | 87 | 120 | 1.0 | 6.0 | 0.00 | 0.00 | 0.00 | 75 | 1010.6 |
| 20260904135306 | 84 | 200 | 1.0 | 9.0 | 0.00 | 0.00 | 0.00 | 79 | 1010.5 |
| 20260904134309 | 83 | 78 | 1.0 | 8.0 | 0.00 | 0.00 | 0.00 | 82 | 1010.6 |
| 20260904133332 | 82 | 162 | 1.0 | 8.0 | 0.00 | 0.00 | 0.00 | 82 | 1010.6 |
| 20260904132310 | 82 | 160 | 0.0 | 0.0 | 0.00 | 0.00 | 0.00 | 85 | 1010.7 |
| 20260904131331 | 81 | 135 | 1.0 | 8.0 | 0.00 | 0.00 | 0.00 | 86 | 1010.7 |
| 20260904130307 | 80 | 112 | 0.0 | 4.0 | 0.00 | 0.00 | 0.00 | 88 | 1010.7 |
| 20260904125322 | 79 | 355 | 0.0 | 4.0 | 0.00 | 0.00 | 0.00 | 89 | 1010.7 |
| 20260904124325 | 79 | 81 | 0.0 | 4.0 | 0.00 | 0.00 | 0.00 | 90 | 1010.8 |
| 20260904123332 | 78 | 181 | 0.0 | 3.0 | 0.00 | 0.00 | 0.00 | 91 | 1010.8 |
| 20260904122341 | 78 | 68 | 0.0 | 4.0 | 0.00 | 0.00 | 0.00 | 92 | 1010.9 |
| 20260904120130 | 76 | 203 | 0.0 | 1.0 | 0.00 | 0.00 | 0.00 | 94 | 1010.8 |
| 20260904115149 | 76 | 234 | 0.0 | 2.0 | 0.00 | 0.00 | 0.00 | 94 | 1010.7 |
| 20260904114209 | 76 | 104 | 0.0 | 0.0 | 0.00 | 0.00 | 0.00 | 94 | 1010.7 |
| 20260904113217 | 76 | 104 | 0.0 | 0.0 | 0.00 | 0.00 | 0.00 | 94 | 1010.7 |
| 20260904112159 | 76 | 212 | 0.0 | 0.0 | 0.00 | 0.00 | 0.00 | 93 | 1010.7 |
| 20260904111152 | 76 | 162 | 0.0 | 0.0 | 0.00 | 0.00 | 0.00 | 93 | 1010.5 |
| 20260904110120 | 76 | 124 | 0.0 | 2.0 | 0.00 | 0.00 | 0.00 | 93 | 1010.5 |
| 20260904105131 | 76 | 191 | 0.0 | 0.0 | 0.00 | 0.00 | 0.00 | 92 | 1010.5 |
| 20260904104155 | 76 | 10 | 0.0 | 0.0 | 0.00 | 0.00 | 0.00 | 92 | 1010.4 |
| 20260904103218 | 76 | 63 | 0.0 | 0.0 | 0.00 | 0.00 | 0.00 | 92 | 1010.4 |
| 20260904102212 | 76 | 82 | 0.0 | 0.0 | 0.00 | 0.00 | 0.00 | 92 | 1010.4 |
| 20260904101205 | 76 | 181 | 0.0 | 1.0 | 0.00 | 0.00 | 0.00 | 92 | 1010.3 |
| 20260904100222 | 76 | 157 | 0.0 | 0.0 | 0.00 | 0.00 | 0.00 | 91 | 1010.3 |
| 20260904095245 | 77 | 187 | 0.0 | 0.0 | 0.00 | 0.00 | 0.00 | 91 | 1010.2 |
| 20260904094250 | 77 | 76 | 0.0 | 0.0 | 0.00 | 0.00 | 0.00 | 90 | 1010.1 |
| 20260904093254 | 77 | 76 | 0.0 | 1.0 | 0.00 | 0.00 | 0.00 | 90 | 1010.1 |
| 20260904092241 | 77 | 113 | 0.0 | 1.0 | 0.00 | 0.00 | 0.00 | 90 | 1010.0 |
| 20260904091214 | 77 | 295 | 0.0 | 0.0 | 0.00 | 0.00 | 0.00 | 90 | 1010.0 |
| 20260904090229 | 77 | 117 | 0.0 | 1.0 | 0.00 | 0.00 | 0.00 | 89 | 1010.0 |
| 20260904085210 | 77 | 199 | 0.0 | 0.0 | 0.00 | 0.00 | 0.00 | 89 | 1009.9 |
| 20260904084213 | 78 | 212 | 0.0 | 1.0 | 0.00 | 0.00 | 0.00 | 88 | 1009.7 |
| 20260904082102 | 78 | 174 | 0.0 | 2.0 | 0.00 | 0.00 | 0.00 | 88 | 1009.8 |
| 20260904081104 | 78 | 195 | 0.0 | 3.0 | 0.00 | 0.00 | 0.00 | 87 | 1009.8 |
| 20260904080115 | 78 | 49 | 0.0 | 1.0 | 0.00 | 0.00 | 0.00 | 87 | 1009.8 |
| 20260904075056 | 78 | 118 | 0.0 | 2.0 | 0.00 | 0.00 | 0.00 | 87 | 1009.7 |
| 20260904074115 | 78 | 359 | 0.0 | 1.0 | 0.00 | 0.00 | 0.00 | 86 | 1009.7 |
| 20260904073127 | 79 | 188 | 0.0 | 0.0 | 0.00 | 0.00 | 0.00 | 86 | 1009.7 |
| 20260904072056 | 79 | 184 | 0.0 | 1.0 | 0.00 | 0.00 | 0.00 | 85 | 1009.5 |
| 20260904071058 | 79 | 165 | 0.0 | 2.0 | 0.00 | 0.00 | 0.00 | 85 | 1009.7 |
| 20260904064925 | 79 | 90 | 0.0 | 2.0 | 0.00 | 0.00 | 0.00 | 84 | 1009.9 |
| 20260904063926 | 79 | 5 | 0.0 | 1.0 | 0.00 | 0.00 | 0.00 | 84 | 1010.1 |
| 20260904062910 | 80 | 179 | 0.0 | 2.0 | 0.00 | 0.00 | 0.00 | 83 | 1010.4 |
| 20260904060738 | 80 | 46 | 0.0 | 1.0 | 0.00 | 0.00 | 0.00 | 83 | 1010.6 |
| 20260904054612 | 81 | 195 | 0.0 | 2.0 | 0.00 | 0.00 | 0.00 | 82 | 1010.9 |
| 20260904053548 | 81 | 165 | 0.0 | 3.0 | 0.00 | 0.00 | 0.00 | 82 | 1011.0 |
| 20260904052520 | 81 | 49 | 0.0 | 2.0 | 0.00 | 0.00 | 0.00 | 81 | 1011.2 |
| 20260904051526 | 81 | 141 | 0.0 | 2.0 | 0.00 | 0.00 | 0.00 | 81 | 1011.2 |
| 20260904050551 | 82 | 105 | 0.0 | 3.0 | 0.00 | 0.00 | 0.00 | 81 | 1011.1 |
| 20260904045529 | 82 | 207 | 0.0 | 3.0 | 0.00 | 0.00 | 0.00 | 82 | 1011.0 |
| 20260904044536 | 82 | 43 | 0.0 | 0.0 | 0.00 | 0.00 | 0.00 | 82 | 1011.0 |
| 20260904043527 | 82 | 103 | 0.0 | 4.0 | 0.00 | 0.00 | 0.00 | 82 | 1011.0 |
| 20260904042547 | 82 | 122 | 0.0 | 1.0 | 0.00 | 0.00 | 0.00 | 82 | 1011.0 |
| 20260904041536 | 83 | 177 | 0.0 | 2.0 | 0.00 | 0.00 | 0.00 | 81 | 1011.0 |
| 20260904035420 | 83 | 136 | 0.0 | 2.0 | 0.00 | 0.00 | 0.00 | 80 | 1010.5 |
| 20260904034348 | 84 | 111 | 0.0 | 0.0 | 0.00 | 0.00 | 0.00 | 80 | 1010.5 |
| 20260904033349 | 84 | 288 | 0.0 | 4.0 | 0.00 | 0.00 | 0.00 | 79 | 1010.5 |
| 20260904031146 | 84 | 143 | 0.0 | 0.0 | 0.00 | 0.00 | 0.00 | 79 | 1010.8 |
| 20260904025043 | 84 | 30 | 0.0 | 1.0 | 0.00 | 0.00 | 0.00 | 79 | 1011.0 |
| 20260904024057 | 84 | 165 | 0.0 | 0.0 | 0.00 | 0.00 | 0.00 | 78 | 1011.0 |
| 20260904023047 | 84 | 103 | 0.0 | 1.0 | 0.00 | 0.00 | 0.00 | 79 | 1011.0 |
| 20260904022018 | 84 | 179 | 0.0 | 0.0 | 0.00 | 0.00 | 0.00 | 79 | 1011.0 |
| 20260904015919 | 84 | 179 | 0.0 | 0.0 | 0.00 | 0.00 | 0.00 | 78 | 1011.1 |
| 20260904014931 | 84 | 179 | 0.0 | 0.0 | 0.00 | 0.00 | 0.00 | 77 | 1011.0 |
| 20260904013943 | 84 | 158 | 0.0 | 0.0 | 0.00 | 0.00 | 0.00 | 77 | 1010.9 |
| 20260904012959 | 85 | 158 | 0.0 | 3.0 | 0.00 | 0.00 | 0.00 | 76 | 1010.9 |
| 20260904012008 | 85 | 140 | 0.0 | 0.0 | 0.00 | 0.00 | 0.00 | 76 | 1010.6 |
| 20260904011018 | 85 | 44 | 0.0 | 0.0 | 0.00 | 0.00 | 0.00 | 75 | 1010.4 |
| 20260904004825 | 86 | 44 | 0.0 | 0.0 | 0.00 | 0.00 | 0.00 | 73 | 1010.2 |
| 20260904003807 | 87 | 35 | 0.0 | 0.0 | 0.00 | 0.00 | 0.00 | 72 | 1010.0 |
| 20260904002734 | 87 | 75 | 0.0 | 0.0 | 0.00 | 0.00 | 0.00 | 71 | 1009.6 |
| 20260904001751 | 88 | 170 | 0.0 | 5.0 | 0.00 | 0.00 | 0.00 | 70 | 1009.6 |
| 20260903235615 | 89 | 89 | 0.0 | 1.0 | 0.00 | 0.00 | 0.00 | 66 | 1009.4 |
| 20260903234620 | 90 | 85 | 0.0 | 2.0 | 0.00 | 0.00 | 0.00 | 65 | 1009.4 |
| 20260903233602 | 91 | 132 | 0.0 | 3.0 | 0.00 | 0.00 | 0.00 | 63 | 1009.4 |
| 20260903232558 | 91 | 130 | 0.0 | 1.0 | 0.00 | 0.00 | 0.00 | 62 | 1009.5 |
| 20260903230456 | 94 | 110 | 1.0 | 5.0 | 0.00 | 0.00 | 0.00 | 59 | 1009.6 |
| 20260903225454 | 95 | 147 | 1.0 | 4.0 | 0.00 | 0.00 | 0.00 | 57 | 1009.4 |
| 20260903224427 | 96 | 102 | 0.0 | 2.0 | 0.00 | 0.00 | 0.00 | 55 | 1009.4 |
| 20260903223445 | 97 | 170 | 0.0 | 6.0 | 0.00 | 0.00 | 0.00 | 54 | 1009.3 |
| 20260903220226 | 99 | 117 | 1.0 | 4.0 | 0.00 | 0.00 | 0.00 | 52 | 1009.2 |